sensor_id;sensor_type;location;lat;lon;timestamp;P1;durP1;ratioP1;P2;durP2;ratioP2
6531;SDS011;3299;42.004;24.868;2023-03-23T00:00:51;23.55;;;16.80;;
6531;SDS011;3299;42.004;24.868;2023-03-23T00:03:16;21.83;;;15.60;;
6531;SDS011;3299;42.004;24.868;2023-03-23T00:05:42;19.88;;;15.88;;
6531;SDS011;3299;42.004;24.868;2023-03-23T00:08:15;23.27;;;16.10;;
6531;SDS011;3299;42.004;24.868;2023-03-23T00:10:41;25.23;;;17.73;;
6531;SDS011;3299;42.004;24.868;2023-03-23T00:13:06;21.60;;;15.13;;
6531;SDS011;3299;42.004;24.868;2023-03-23T00:15:32;19.60;;;14.25;;
6531;SDS011;3299;42.004;24.868;2023-03-23T00:18:00;20.52;;;14.40;;
6531;SDS011;3299;42.004;24.868;2023-03-23T00:20:27;22.02;;;13.73;;
6531;SDS011;3299;42.004;24.868;2023-03-23T00:22:54;18.88;;;13.02;;
6531;SDS011;3299;42.004;24.868;2023-03-23T00:25:24;17.85;;;12.70;;
6531;SDS011;3299;42.004;24.868;2023-03-23T00:27:50;18.25;;;13.60;;
6531;SDS011;3299;42.004;24.868;2023-03-23T00:30:15;16.17;;;12.93;;
6531;SDS011;3299;42.004;24.868;2023-03-23T00:32:41;19.55;;;13.25;;
6531;SDS011;3299;42.004;24.868;2023-03-23T00:35:06;18.20;;;13.45;;
6531;SDS011;3299;42.004;24.868;2023-03-23T00:37:33;16.95;;;13.27;;
6531;SDS011;3299;42.004;24.868;2023-03-23T00:40:00;22.70;;;14.50;;
6531;SDS011;3299;42.004;24.868;2023-03-23T00:42:30;18.02;;;12.68;;
6531;SDS011;3299;42.004;24.868;2023-03-23T00:45:01;16.63;;;12.75;;
6531;SDS011;3299;42.004;24.868;2023-03-23T00:47:27;19.00;;;13.65;;
6531;SDS011;3299;42.004;24.868;2023-03-23T00:49:52;16.92;;;12.70;;
6531;SDS011;3299;42.004;24.868;2023-03-23T00:52:20;19.15;;;13.48;;
6531;SDS011;3299;42.004;24.868;2023-03-23T00:54:46;22.38;;;14.32;;
6531;SDS011;3299;42.004;24.868;2023-03-23T00:57:11;23.10;;;14.85;;
6531;SDS011;3299;42.004;24.868;2023-03-23T00:59:37;18.85;;;13.65;;
6531;SDS011;3299;42.004;24.868;2023-03-23T01:02:02;24.45;;;14.48;;
6531;SDS011;3299;42.004;24.868;2023-03-23T01:04:27;21.17;;;14.85;;
6531;SDS011;3299;42.004;24.868;2023-03-23T01:06:53;22.63;;;14.98;;
6531;SDS011;3299;42.004;24.868;2023-03-23T01:09:19;20.13;;;14.63;;
6531;SDS011;3299;42.004;24.868;2023-03-23T01:11:46;22.85;;;16.05;;
6531;SDS011;3299;42.004;24.868;2023-03-23T01:14:15;22.17;;;15.07;;
6531;SDS011;3299;42.004;24.868;2023-03-23T01:16:41;27.58;;;18.75;;
6531;SDS011;3299;42.004;24.868;2023-03-23T01:19:07;24.98;;;16.35;;
6531;SDS011;3299;42.004;24.868;2023-03-23T01:21:33;23.52;;;16.25;;
6531;SDS011;3299;42.004;24.868;2023-03-23T01:23:58;24.90;;;15.57;;
6531;SDS011;3299;42.004;24.868;2023-03-23T01:26:24;23.05;;;15.82;;
6531;SDS011;3299;42.004;24.868;2023-03-23T01:28:52;23.13;;;15.15;;
6531;SDS011;3299;42.004;24.868;2023-03-23T01:31:19;23.02;;;15.80;;
6531;SDS011;3299;42.004;24.868;2023-03-23T01:33:46;28.08;;;16.88;;
6531;SDS011;3299;42.004;24.868;2023-03-23T01:36:13;25.77;;;17.10;;
6531;SDS011;3299;42.004;24.868;2023-03-23T01:38:41;25.38;;;15.98;;
6531;SDS011;3299;42.004;24.868;2023-03-23T01:41:10;29.55;;;19.02;;
6531;SDS011;3299;42.004;24.868;2023-03-23T01:43:36;28.05;;;18.33;;
6531;SDS011;3299;42.004;24.868;2023-03-23T01:46:18;27.35;;;17.67;;
6531;SDS011;3299;42.004;24.868;2023-03-23T01:48:43;31.95;;;19.45;;
6531;SDS011;3299;42.004;24.868;2023-03-23T01:51:13;24.23;;;17.10;;
6531;SDS011;3299;42.004;24.868;2023-03-23T01:53:43;23.75;;;15.93;;
6531;SDS011;3299;42.004;24.868;2023-03-23T01:56:14;20.85;;;15.43;;
6531;SDS011;3299;42.004;24.868;2023-03-23T01:58:45;22.95;;;16.17;;
6531;SDS011;3299;42.004;24.868;2023-03-23T02:01:12;27.75;;;19.30;;
6531;SDS011;3299;42.004;24.868;2023-03-23T02:03:41;32.25;;;20.90;;
6531;SDS011;3299;42.004;24.868;2023-03-23T02:06:10;40.22;;;23.35;;
6531;SDS011;3299;42.004;24.868;2023-03-23T02:08:35;36.78;;;23.77;;
6531;SDS011;3299;42.004;24.868;2023-03-23T02:11:13;37.63;;;24.00;;
6531;SDS011;3299;42.004;24.868;2023-03-23T02:13:48;36.90;;;24.60;;
6531;SDS011;3299;42.004;24.868;2023-03-23T02:35:17;40.08;;;25.52;;
6531;SDS011;3299;42.004;24.868;2023-03-23T02:40:38;30.63;;;22.00;;
6531;SDS011;3299;42.004;24.868;2023-03-23T02:43:07;35.92;;;24.50;;
6531;SDS011;3299;42.004;24.868;2023-03-23T02:45:36;33.85;;;22.20;;
6531;SDS011;3299;42.004;24.868;2023-03-23T02:48:04;35.03;;;23.50;;
6531;SDS011;3299;42.004;24.868;2023-03-23T02:50:31;35.33;;;22.48;;
6531;SDS011;3299;42.004;24.868;2023-03-23T02:52:58;36.00;;;24.65;;
6531;SDS011;3299;42.004;24.868;2023-03-23T02:55:25;36.67;;;24.38;;
6531;SDS011;3299;42.004;24.868;2023-03-23T02:57:53;36.85;;;23.75;;
6531;SDS011;3299;42.004;24.868;2023-03-23T03:00:20;33.45;;;23.20;;
6531;SDS011;3299;42.004;24.868;2023-03-23T03:02:47;31.50;;;21.73;;
6531;SDS011;3299;42.004;24.868;2023-03-23T03:11:14;29.02;;;20.00;;
6531;SDS011;3299;42.004;24.868;2023-03-23T03:13:52;31.17;;;21.30;;
6531;SDS011;3299;42.004;24.868;2023-03-23T03:22:00;27.73;;;19.77;;
6531;SDS011;3299;42.004;24.868;2023-03-23T03:24:27;30.52;;;19.40;;
6531;SDS011;3299;42.004;24.868;2023-03-23T03:26:55;30.45;;;19.42;;
6531;SDS011;3299;42.004;24.868;2023-03-23T03:29:25;31.45;;;20.70;;
6531;SDS011;3299;42.004;24.868;2023-03-23T03:31:56;31.45;;;20.85;;
6531;SDS011;3299;42.004;24.868;2023-03-23T03:34:23;32.95;;;21.38;;
6531;SDS011;3299;42.004;24.868;2023-03-23T03:36:49;30.17;;;19.40;;
6531;SDS011;3299;42.004;24.868;2023-03-23T03:39:19;33.72;;;20.60;;
6531;SDS011;3299;42.004;24.868;2023-03-23T03:41:46;29.08;;;20.27;;
6531;SDS011;3299;42.004;24.868;2023-03-23T03:44:12;28.63;;;20.45;;
6531;SDS011;3299;42.004;24.868;2023-03-23T03:46:38;31.50;;;20.77;;
6531;SDS011;3299;42.004;24.868;2023-03-23T03:49:05;32.67;;;20.73;;
6531;SDS011;3299;42.004;24.868;2023-03-23T03:51:32;32.85;;;20.70;;
6531;SDS011;3299;42.004;24.868;2023-03-23T03:54:00;31.25;;;21.15;;
6531;SDS011;3299;42.004;24.868;2023-03-23T03:56:26;36.33;;;21.23;;
6531;SDS011;3299;42.004;24.868;2023-03-23T03:58:52;32.70;;;21.15;;
6531;SDS011;3299;42.004;24.868;2023-03-23T04:01:18;37.08;;;23.92;;
6531;SDS011;3299;42.004;24.868;2023-03-23T04:03:49;42.55;;;25.55;;
6531;SDS011;3299;42.004;24.868;2023-03-23T04:06:16;43.05;;;25.13;;
6531;SDS011;3299;42.004;24.868;2023-03-23T04:08:41;49.65;;;28.48;;
6531;SDS011;3299;42.004;24.868;2023-03-23T04:11:08;56.53;;;30.58;;
6531;SDS011;3299;42.004;24.868;2023-03-23T04:13:35;56.28;;;29.85;;
6531;SDS011;3299;42.004;24.868;2023-03-23T04:16:00;59.58;;;31.75;;
6531;SDS011;3299;42.004;24.868;2023-03-23T04:18:28;60.15;;;32.58;;
6531;SDS011;3299;42.004;24.868;2023-03-23T04:20:54;58.40;;;31.75;;
6531;SDS011;3299;42.004;24.868;2023-03-23T04:23:24;61.67;;;32.90;;
6531;SDS011;3299;42.004;24.868;2023-03-23T04:25:49;58.85;;;31.95;;
6531;SDS011;3299;42.004;24.868;2023-03-23T04:28:16;60.65;;;32.53;;
6531;SDS011;3299;42.004;24.868;2023-03-23T04:30:43;66.57;;;34.60;;
6531;SDS011;3299;42.004;24.868;2023-03-23T04:33:10;62.78;;;33.08;;
6531;SDS011;3299;42.004;24.868;2023-03-23T04:35:40;62.08;;;32.10;;
6531;SDS011;3299;42.004;24.868;2023-03-23T04:38:07;57.03;;;30.85;;
6531;SDS011;3299;42.004;24.868;2023-03-23T04:40:37;53.53;;;30.73;;
6531;SDS011;3299;42.004;24.868;2023-03-23T04:43:04;54.38;;;31.02;;
6531;SDS011;3299;42.004;24.868;2023-03-23T04:45:30;54.22;;;31.75;;
6531;SDS011;3299;42.004;24.868;2023-03-23T04:47:57;51.00;;;29.73;;
6531;SDS011;3299;42.004;24.868;2023-03-23T04:50:23;54.58;;;30.17;;
6531;SDS011;3299;42.004;24.868;2023-03-23T04:52:56;49.25;;;29.20;;
6531;SDS011;3299;42.004;24.868;2023-03-23T04:55:23;56.08;;;32.20;;
6531;SDS011;3299;42.004;24.868;2023-03-23T04:57:50;56.50;;;30.60;;
6531;SDS011;3299;42.004;24.868;2023-03-23T05:00:16;56.08;;;32.47;;
6531;SDS011;3299;42.004;24.868;2023-03-23T05:02:43;52.33;;;32.10;;
6531;SDS011;3299;42.004;24.868;2023-03-23T05:05:11;58.03;;;30.50;;
6531;SDS011;3299;42.004;24.868;2023-03-23T05:07:38;54.55;;;30.60;;
6531;SDS011;3299;42.004;24.868;2023-03-23T05:10:05;52.15;;;30.95;;
6531;SDS011;3299;42.004;24.868;2023-03-23T05:12:32;57.53;;;31.80;;
6531;SDS011;3299;42.004;24.868;2023-03-23T05:14:58;59.03;;;32.47;;
6531;SDS011;3299;42.004;24.868;2023-03-23T05:17:23;56.65;;;31.63;;
6531;SDS011;3299;42.004;24.868;2023-03-23T05:19:50;53.42;;;30.60;;
6531;SDS011;3299;42.004;24.868;2023-03-23T05:22:16;46.00;;;27.67;;
6531;SDS011;3299;42.004;24.868;2023-03-23T05:24:42;46.78;;;28.58;;
6531;SDS011;3299;42.004;24.868;2023-03-23T05:27:08;51.97;;;29.95;;
6531;SDS011;3299;42.004;24.868;2023-03-23T05:29:34;58.22;;;29.95;;
6531;SDS011;3299;42.004;24.868;2023-03-23T05:32:02;54.33;;;29.33;;
6531;SDS011;3299;42.004;24.868;2023-03-23T05:34:31;49.35;;;28.25;;
6531;SDS011;3299;42.004;24.868;2023-03-23T05:36:57;49.15;;;29.20;;
6531;SDS011;3299;42.004;24.868;2023-03-23T05:39:24;53.70;;;29.98;;
6531;SDS011;3299;42.004;24.868;2023-03-23T05:41:49;62.40;;;31.85;;
6531;SDS011;3299;42.004;24.868;2023-03-23T05:44:15;56.92;;;30.65;;
6531;SDS011;3299;42.004;24.868;2023-03-23T05:46:41;54.15;;;30.80;;
6531;SDS011;3299;42.004;24.868;2023-03-23T05:49:06;52.75;;;30.52;;
6531;SDS011;3299;42.004;24.868;2023-03-23T05:51:32;54.58;;;29.45;;
6531;SDS011;3299;42.004;24.868;2023-03-23T05:53:57;54.55;;;31.70;;
6531;SDS011;3299;42.004;24.868;2023-03-23T05:56:23;53.80;;;32.42;;
6531;SDS011;3299;42.004;24.868;2023-03-23T05:58:49;53.67;;;30.83;;
6531;SDS011;3299;42.004;24.868;2023-03-23T06:01:14;54.83;;;30.38;;
6531;SDS011;3299;42.004;24.868;2023-03-23T06:03:40;57.25;;;32.28;;
6531;SDS011;3299;42.004;24.868;2023-03-23T06:06:08;61.50;;;33.65;;
6531;SDS011;3299;42.004;24.868;2023-03-23T06:08:35;58.97;;;33.15;;
6531;SDS011;3299;42.004;24.868;2023-03-23T06:11:02;58.45;;;31.88;;
6531;SDS011;3299;42.004;24.868;2023-03-23T06:13:27;58.70;;;32.85;;
6531;SDS011;3299;42.004;24.868;2023-03-23T06:15:56;65.53;;;33.38;;
6531;SDS011;3299;42.004;24.868;2023-03-23T06:18:24;65.88;;;31.60;;
6531;SDS011;3299;42.004;24.868;2023-03-23T06:20:51;58.60;;;31.33;;
6531;SDS011;3299;42.004;24.868;2023-03-23T06:23:17;57.75;;;32.28;;
6531;SDS011;3299;42.004;24.868;2023-03-23T06:25:43;61.05;;;31.88;;
6531;SDS011;3299;42.004;24.868;2023-03-23T06:28:09;64.47;;;34.67;;
6531;SDS011;3299;42.004;24.868;2023-03-23T06:30:35;65.65;;;34.92;;
6531;SDS011;3299;42.004;24.868;2023-03-23T06:33:01;76.57;;;38.22;;
6531;SDS011;3299;42.004;24.868;2023-03-23T06:35:30;68.15;;;35.92;;
6531;SDS011;3299;42.004;24.868;2023-03-23T06:37:58;65.30;;;35.13;;
6531;SDS011;3299;42.004;24.868;2023-03-23T06:40:26;68.05;;;33.05;;
6531;SDS011;3299;42.004;24.868;2023-03-23T06:42:53;62.83;;;33.13;;
6531;SDS011;3299;42.004;24.868;2023-03-23T06:45:19;63.95;;;33.75;;
6531;SDS011;3299;42.004;24.868;2023-03-23T06:47:45;66.18;;;33.60;;
6531;SDS011;3299;42.004;24.868;2023-03-23T06:50:13;64.95;;;31.95;;
6531;SDS011;3299;42.004;24.868;2023-03-23T06:52:40;52.65;;;29.35;;
6531;SDS011;3299;42.004;24.868;2023-03-23T06:55:06;64.97;;;32.63;;
6531;SDS011;3299;42.004;24.868;2023-03-23T06:57:32;65.93;;;31.48;;
6531;SDS011;3299;42.004;24.868;2023-03-23T06:59:57;60.45;;;32.17;;
6531;SDS011;3299;42.004;24.868;2023-03-23T07:02:22;57.00;;;31.70;;
6531;SDS011;3299;42.004;24.868;2023-03-23T07:04:48;59.15;;;32.38;;
6531;SDS011;3299;42.004;24.868;2023-03-23T07:07:14;63.13;;;32.30;;
6531;SDS011;3299;42.004;24.868;2023-03-23T07:09:43;64.88;;;33.00;;
6531;SDS011;3299;42.004;24.868;2023-03-23T07:12:09;57.80;;;31.20;;
6531;SDS011;3299;42.004;24.868;2023-03-23T07:14:35;54.97;;;31.27;;
6531;SDS011;3299;42.004;24.868;2023-03-23T07:17:00;56.45;;;29.58;;
6531;SDS011;3299;42.004;24.868;2023-03-23T07:19:28;57.50;;;31.10;;
6531;SDS011;3299;42.004;24.868;2023-03-23T07:21:53;53.78;;;31.98;;
6531;SDS011;3299;42.004;24.868;2023-03-23T07:24:18;57.05;;;31.55;;
6531;SDS011;3299;42.004;24.868;2023-03-23T07:26:44;57.88;;;31.42;;
6531;SDS011;3299;42.004;24.868;2023-03-23T07:29:10;57.55;;;30.73;;
6531;SDS011;3299;42.004;24.868;2023-03-23T07:31:35;55.63;;;30.50;;
6531;SDS011;3299;42.004;24.868;2023-03-23T07:34:01;55.90;;;29.23;;
6531;SDS011;3299;42.004;24.868;2023-03-23T07:36:28;55.30;;;29.33;;
6531;SDS011;3299;42.004;24.868;2023-03-23T07:38:53;54.00;;;32.28;;
6531;SDS011;3299;42.004;24.868;2023-03-23T07:41:20;61.17;;;30.70;;
6531;SDS011;3299;42.004;24.868;2023-03-23T07:43:45;49.70;;;28.75;;
6531;SDS011;3299;42.004;24.868;2023-03-23T07:46:11;54.50;;;29.55;;
6531;SDS011;3299;42.004;24.868;2023-03-23T07:48:37;54.92;;;27.70;;
6531;SDS011;3299;42.004;24.868;2023-03-23T07:51:03;53.17;;;29.60;;
6531;SDS011;3299;42.004;24.868;2023-03-23T07:53:29;57.58;;;30.33;;
6531;SDS011;3299;42.004;24.868;2023-03-23T07:55:54;54.80;;;31.15;;
6531;SDS011;3299;42.004;24.868;2023-03-23T07:58:20;62.97;;;32.30;;
6531;SDS011;3299;42.004;24.868;2023-03-23T08:00:46;54.35;;;30.15;;
6531;SDS011;3299;42.004;24.868;2023-03-23T08:03:14;53.58;;;28.98;;
6531;SDS011;3299;42.004;24.868;2023-03-23T08:05:40;58.72;;;29.95;;
6531;SDS011;3299;42.004;24.868;2023-03-23T08:08:07;53.42;;;30.40;;
6531;SDS011;3299;42.004;24.868;2023-03-23T08:10:34;53.35;;;28.23;;
6531;SDS011;3299;42.004;24.868;2023-03-23T08:13:00;57.05;;;29.17;;
6531;SDS011;3299;42.004;24.868;2023-03-23T08:15:25;56.17;;;30.38;;
6531;SDS011;3299;42.004;24.868;2023-03-23T08:17:52;51.47;;;28.38;;
6531;SDS011;3299;42.004;24.868;2023-03-23T08:20:18;48.55;;;27.50;;
6531;SDS011;3299;42.004;24.868;2023-03-23T08:22:48;45.78;;;27.77;;
6531;SDS011;3299;42.004;24.868;2023-03-23T08:25:17;50.85;;;27.90;;
6531;SDS011;3299;42.004;24.868;2023-03-23T08:27:44;50.58;;;29.33;;
6531;SDS011;3299;42.004;24.868;2023-03-23T08:30:10;55.40;;;30.67;;
6531;SDS011;3299;42.004;24.868;2023-03-23T08:32:38;50.45;;;29.27;;
6531;SDS011;3299;42.004;24.868;2023-03-23T08:35:05;51.92;;;28.63;;
6531;SDS011;3299;42.004;24.868;2023-03-23T08:37:32;53.08;;;29.15;;
6531;SDS011;3299;42.004;24.868;2023-03-23T08:39:57;52.47;;;29.58;;
6531;SDS011;3299;42.004;24.868;2023-03-23T08:42:26;53.72;;;30.02;;
6531;SDS011;3299;42.004;24.868;2023-03-23T08:44:51;52.38;;;31.05;;
6531;SDS011;3299;42.004;24.868;2023-03-23T08:47:17;49.38;;;28.30;;
6531;SDS011;3299;42.004;24.868;2023-03-23T08:49:43;49.38;;;28.10;;
6531;SDS011;3299;42.004;24.868;2023-03-23T08:52:10;47.17;;;27.35;;
6531;SDS011;3299;42.004;24.868;2023-03-23T08:54:36;50.53;;;28.30;;
6531;SDS011;3299;42.004;24.868;2023-03-23T08:57:01;50.97;;;30.15;;
6531;SDS011;3299;42.004;24.868;2023-03-23T08:59:27;46.75;;;28.67;;
6531;SDS011;3299;42.004;24.868;2023-03-23T09:01:53;42.13;;;25.90;;
6531;SDS011;3299;42.004;24.868;2023-03-23T09:04:19;49.85;;;28.38;;
6531;SDS011;3299;42.004;24.868;2023-03-23T09:06:45;41.17;;;24.45;;
6531;SDS011;3299;42.004;24.868;2023-03-23T09:09:11;37.50;;;23.55;;
6531;SDS011;3299;42.004;24.868;2023-03-23T09:11:38;38.63;;;22.63;;
6531;SDS011;3299;42.004;24.868;2023-03-23T09:14:04;40.17;;;25.58;;
6531;SDS011;3299;42.004;24.868;2023-03-23T09:16:31;32.70;;;21.95;;
6531;SDS011;3299;42.004;24.868;2023-03-23T09:18:57;37.17;;;20.80;;
6531;SDS011;3299;42.004;24.868;2023-03-23T09:21:24;32.67;;;21.63;;
6531;SDS011;3299;42.004;24.868;2023-03-23T09:23:50;35.90;;;20.10;;
6531;SDS011;3299;42.004;24.868;2023-03-23T09:26:16;35.60;;;21.35;;
6531;SDS011;3299;42.004;24.868;2023-03-23T09:28:42;35.45;;;22.17;;
6531;SDS011;3299;42.004;24.868;2023-03-23T09:31:09;39.03;;;23.92;;
6531;SDS011;3299;42.004;24.868;2023-03-23T09:33:36;36.33;;;23.00;;
6531;SDS011;3299;42.004;24.868;2023-03-23T09:36:01;35.13;;;21.73;;
6531;SDS011;3299;42.004;24.868;2023-03-23T09:38:29;31.75;;;20.52;;
6531;SDS011;3299;42.004;24.868;2023-03-23T09:49:21;26.33;;;17.02;;
6531;SDS011;3299;42.004;24.868;2023-03-23T09:51:57;26.52;;;18.77;;
6531;SDS011;3299;42.004;24.868;2023-03-23T09:57:12;32.42;;;18.65;;
6531;SDS011;3299;42.004;24.868;2023-03-23T09:59:52;29.70;;;18.95;;
6531;SDS011;3299;42.004;24.868;2023-03-23T10:02:27;29.50;;;20.00;;
6531;SDS011;3299;42.004;24.868;2023-03-23T10:05:01;30.13;;;19.27;;
6531;SDS011;3299;42.004;24.868;2023-03-23T10:07:44;25.08;;;16.88;;
6531;SDS011;3299;42.004;24.868;2023-03-23T10:10:12;29.65;;;19.45;;
6531;SDS011;3299;42.004;24.868;2023-03-23T10:15:29;29.45;;;18.88;;
6531;SDS011;3299;42.004;24.868;2023-03-23T10:18:08;23.75;;;18.25;;
6531;SDS011;3299;42.004;24.868;2023-03-23T10:25:46;28.30;;;18.45;;
6531;SDS011;3299;42.004;24.868;2023-03-23T10:28:21;31.05;;;20.08;;
6531;SDS011;3299;42.004;24.868;2023-03-23T10:30:59;27.52;;;18.88;;
6531;SDS011;3299;42.004;24.868;2023-03-23T10:36:06;26.67;;;19.30;;
6531;SDS011;3299;42.004;24.868;2023-03-23T10:38:47;26.30;;;18.50;;
6531;SDS011;3299;42.004;24.868;2023-03-23T10:41:17;26.63;;;18.35;;
6531;SDS011;3299;42.004;24.868;2023-03-23T10:43:44;29.38;;;19.67;;
6531;SDS011;3299;42.004;24.868;2023-03-23T10:49:02;24.30;;;17.33;;
6531;SDS011;3299;42.004;24.868;2023-03-23T10:51:34;23.80;;;17.02;;
6531;SDS011;3299;42.004;24.868;2023-03-23T10:54:03;22.65;;;17.23;;
6531;SDS011;3299;42.004;24.868;2023-03-23T10:56:43;25.60;;;16.60;;
6531;SDS011;3299;42.004;24.868;2023-03-23T10:59:20;22.35;;;14.88;;
6531;SDS011;3299;42.004;24.868;2023-03-23T11:01:52;23.77;;;17.02;;
6531;SDS011;3299;42.004;24.868;2023-03-23T11:04:20;16.42;;;12.38;;
6531;SDS011;3299;42.004;24.868;2023-03-23T11:06:49;14.98;;;10.40;;
6531;SDS011;3299;42.004;24.868;2023-03-23T11:09:21;15.15;;;11.40;;
6531;SDS011;3299;42.004;24.868;2023-03-23T11:11:59;175.85;;;156.27;;
6531;SDS011;3299;42.004;24.868;2023-03-23T11:14:29;10.18;;;7.97;;
6531;SDS011;3299;42.004;24.868;2023-03-23T11:16:55;7.90;;;6.53;;
6531;SDS011;3299;42.004;24.868;2023-03-23T11:21:51;11.13;;;8.15;;
6531;SDS011;3299;42.004;24.868;2023-03-23T11:24:20;8.57;;;6.70;;
6531;SDS011;3299;42.004;24.868;2023-03-23T11:26:47;11.02;;;8.15;;
6531;SDS011;3299;42.004;24.868;2023-03-23T11:29:23;10.80;;;8.02;;
6531;SDS011;3299;42.004;24.868;2023-03-23T11:31:53;12.15;;;9.00;;
6531;SDS011;3299;42.004;24.868;2023-03-23T11:34:37;10.25;;;8.52;;
6531;SDS011;3299;42.004;24.868;2023-03-23T11:37:10;15.55;;;10.18;;
6531;SDS011;3299;42.004;24.868;2023-03-23T11:50:53;10.13;;;7.90;;
6531;SDS011;3299;42.004;24.868;2023-03-23T11:58:38;10.00;;;8.05;;
6531;SDS011;3299;42.004;24.868;2023-03-23T12:06:41;13.85;;;8.40;;
6531;SDS011;3299;42.004;24.868;2023-03-23T12:09:24;8.50;;;6.63;;
6531;SDS011;3299;42.004;24.868;2023-03-23T12:22:24;9.05;;;7.05;;
6531;SDS011;3299;42.004;24.868;2023-03-23T12:41:44;9.73;;;7.53;;
6531;SDS011;3299;42.004;24.868;2023-03-23T12:44:16;7.55;;;6.50;;
6531;SDS011;3299;42.004;24.868;2023-03-23T12:47:47;8.05;;;6.65;;
6531;SDS011;3299;42.004;24.868;2023-03-23T12:50:15;8.13;;;6.53;;
6531;SDS011;3299;42.004;24.868;2023-03-23T12:52:54;6.97;;;6.28;;
6531;SDS011;3299;42.004;24.868;2023-03-23T13:03:23;7.53;;;5.80;;
6531;SDS011;3299;42.004;24.868;2023-03-23T13:06:15;5.97;;;5.43;;
6531;SDS011;3299;42.004;24.868;2023-03-23T13:08:47;6.22;;;5.63;;
6531;SDS011;3299;42.004;24.868;2023-03-23T13:11:24;7.07;;;6.43;;
6531;SDS011;3299;42.004;24.868;2023-03-23T13:13:57;7.68;;;5.00;;
6531;SDS011;3299;42.004;24.868;2023-03-23T13:16:34;8.90;;;4.72;;
6531;SDS011;3299;42.004;24.868;2023-03-23T13:24:15;5.10;;;4.60;;
6531;SDS011;3299;42.004;24.868;2023-03-23T13:26:46;4.63;;;4.22;;
6531;SDS011;3299;42.004;24.868;2023-03-23T13:29:17;4.68;;;4.25;;
6531;SDS011;3299;42.004;24.868;2023-03-23T13:31:45;4.20;;;3.75;;
6531;SDS011;3299;42.004;24.868;2023-03-23T13:34:17;4.22;;;3.83;;
6531;SDS011;3299;42.004;24.868;2023-03-23T13:36:52;5.55;;;3.90;;
6531;SDS011;3299;42.004;24.868;2023-03-23T13:41:54;4.43;;;4.05;;
6531;SDS011;3299;42.004;24.868;2023-03-23T13:44:38;4.00;;;3.65;;
6531;SDS011;3299;42.004;24.868;2023-03-23T13:47:35;5.30;;;3.97;;
6531;SDS011;3299;42.004;24.868;2023-03-23T13:55:18;4.38;;;3.97;;
6531;SDS011;3299;42.004;24.868;2023-03-23T14:08:36;7.82;;;6.13;;
6531;SDS011;3299;42.004;24.868;2023-03-23T14:11:11;5.05;;;4.13;;
6531;SDS011;3299;42.004;24.868;2023-03-23T14:16:31;8.45;;;6.13;;
6531;SDS011;3299;42.004;24.868;2023-03-23T14:18:57;15.00;;;9.82;;
6531;SDS011;3299;42.004;24.868;2023-03-23T14:21:34;4.00;;;3.70;;
6531;SDS011;3299;42.004;24.868;2023-03-23T14:24:03;36.65;;;23.13;;
6531;SDS011;3299;42.004;24.868;2023-03-23T14:26:49;6.07;;;5.47;;
6531;SDS011;3299;42.004;24.868;2023-03-23T14:29:17;23.02;;;13.88;;
6531;SDS011;3299;42.004;24.868;2023-03-23T14:31:44;4.65;;;4.10;;
6531;SDS011;3299;42.004;24.868;2023-03-23T14:34:18;4.43;;;4.03;;
6531;SDS011;3299;42.004;24.868;2023-03-23T14:36:45;3.40;;;3.10;;
6531;SDS011;3299;42.004;24.868;2023-03-23T14:41:51;3.70;;;3.42;;
6531;SDS011;3299;42.004;24.868;2023-03-23T14:44:21;3.25;;;2.95;;
6531;SDS011;3299;42.004;24.868;2023-03-23T14:46:53;4.05;;;3.42;;
6531;SDS011;3299;42.004;24.868;2023-03-23T14:49:30;5.00;;;3.20;;
6531;SDS011;3299;42.004;24.868;2023-03-23T14:52:03;4.70;;;3.53;;
6531;SDS011;3299;42.004;24.868;2023-03-23T14:54:39;4.18;;;3.45;;
6531;SDS011;3299;42.004;24.868;2023-03-23T14:59:44;3.58;;;3.30;;
6531;SDS011;3299;42.004;24.868;2023-03-23T15:02:17;3.90;;;3.60;;
6531;SDS011;3299;42.004;24.868;2023-03-23T15:04:47;3.92;;;3.63;;
6531;SDS011;3299;42.004;24.868;2023-03-23T15:07:18;4.45;;;4.05;;
6531;SDS011;3299;42.004;24.868;2023-03-23T15:09:53;6.45;;;5.43;;
6531;SDS011;3299;42.004;24.868;2023-03-23T15:12:20;7.70;;;7.03;;
6531;SDS011;3299;42.004;24.868;2023-03-23T15:14:52;5.07;;;4.68;;
6531;SDS011;3299;42.004;24.868;2023-03-23T15:17:21;26.73;;;20.30;;
6531;SDS011;3299;42.004;24.868;2023-03-23T15:19:49;7.30;;;6.43;;
6531;SDS011;3299;42.004;24.868;2023-03-23T15:22:26;4.20;;;3.88;;
6531;SDS011;3299;42.004;24.868;2023-03-23T15:27:43;4.82;;;4.32;;
6531;SDS011;3299;42.004;24.868;2023-03-23T15:30:36;4.75;;;4.35;;
6531;SDS011;3299;42.004;24.868;2023-03-23T15:33:04;4.72;;;4.22;;
6531;SDS011;3299;42.004;24.868;2023-03-23T15:35:38;4.78;;;4.38;;
6531;SDS011;3299;42.004;24.868;2023-03-23T15:38:19;4.43;;;4.03;;
6531;SDS011;3299;42.004;24.868;2023-03-23T15:40:55;7.10;;;6.40;;
6531;SDS011;3299;42.004;24.868;2023-03-23T15:43:24;6.07;;;5.47;;
6531;SDS011;3299;42.004;24.868;2023-03-23T15:45:56;22.70;;;20.30;;
6531;SDS011;3299;42.004;24.868;2023-03-23T15:48:45;13.35;;;11.93;;
6531;SDS011;3299;42.004;24.868;2023-03-23T15:51:15;15.45;;;12.20;;
6531;SDS011;3299;42.004;24.868;2023-03-23T15:53:42;8.27;;;7.43;;
6531;SDS011;3299;42.004;24.868;2023-03-23T15:56:09;5.43;;;5.03;;
6531;SDS011;3299;42.004;24.868;2023-03-23T15:58:35;6.15;;;5.65;;
6531;SDS011;3299;42.004;24.868;2023-03-23T16:01:04;7.15;;;5.35;;
6531;SDS011;3299;42.004;24.868;2023-03-23T16:03:37;8.93;;;5.88;;
6531;SDS011;3299;42.004;24.868;2023-03-23T16:06:24;4.85;;;4.45;;
6531;SDS011;3299;42.004;24.868;2023-03-23T16:08:52;6.07;;;5.25;;
6531;SDS011;3299;42.004;24.868;2023-03-23T16:11:18;4.70;;;4.30;;
6531;SDS011;3299;42.004;24.868;2023-03-23T16:13:44;6.93;;;6.13;;
6531;SDS011;3299;42.004;24.868;2023-03-23T16:16:15;12.70;;;9.63;;
6531;SDS011;3299;42.004;24.868;2023-03-23T16:18:43;11.32;;;8.68;;
6531;SDS011;3299;42.004;24.868;2023-03-23T16:21:08;9.15;;;7.40;;
6531;SDS011;3299;42.004;24.868;2023-03-23T16:23:34;11.95;;;8.30;;
6531;SDS011;3299;42.004;24.868;2023-03-23T16:26:00;9.32;;;8.10;;
6531;SDS011;3299;42.004;24.868;2023-03-23T16:28:25;10.75;;;9.75;;
6531;SDS011;3299;42.004;24.868;2023-03-23T16:30:51;17.58;;;12.43;;
6531;SDS011;3299;42.004;24.868;2023-03-23T16:33:16;7.60;;;6.90;;
6531;SDS011;3299;42.004;24.868;2023-03-23T16:35:42;4.75;;;4.15;;
6531;SDS011;3299;42.004;24.868;2023-03-23T16:38:14;10.02;;;6.97;;
6531;SDS011;3299;42.004;24.868;2023-03-23T16:40:40;38.40;;;23.75;;
6531;SDS011;3299;42.004;24.868;2023-03-23T16:43:07;23.13;;;12.25;;
6531;SDS011;3299;42.004;24.868;2023-03-23T16:45:32;39.88;;;16.67;;
6531;SDS011;3299;42.004;24.868;2023-03-23T16:47:58;44.45;;;20.52;;
6531;SDS011;3299;42.004;24.868;2023-03-23T16:50:25;30.23;;;16.98;;
6531;SDS011;3299;42.004;24.868;2023-03-23T16:52:54;8.10;;;7.13;;
6531;SDS011;3299;42.004;24.868;2023-03-23T16:55:20;6.07;;;5.47;;
6531;SDS011;3299;42.004;24.868;2023-03-23T16:57:45;6.05;;;4.95;;
6531;SDS011;3299;42.004;24.868;2023-03-23T17:00:13;6.15;;;4.90;;
6531;SDS011;3299;42.004;24.868;2023-03-23T17:02:40;7.97;;;5.85;;
6531;SDS011;3299;42.004;24.868;2023-03-23T17:05:08;4.90;;;4.40;;
6531;SDS011;3299;42.004;24.868;2023-03-23T17:07:35;14.60;;;7.35;;
6531;SDS011;3299;42.004;24.868;2023-03-23T17:10:02;5.85;;;4.15;;
6531;SDS011;3299;42.004;24.868;2023-03-23T17:12:28;3.85;;;3.45;;
6531;SDS011;3299;42.004;24.868;2023-03-23T17:14:53;3.58;;;3.28;;
6531;SDS011;3299;42.004;24.868;2023-03-23T17:17:19;3.55;;;3.25;;
6531;SDS011;3299;42.004;24.868;2023-03-23T17:19:44;3.08;;;2.72;;
6531;SDS011;3299;42.004;24.868;2023-03-23T17:22:10;2.97;;;2.78;;